Time;durP1;ratioP1;P1;durP2;ratioP2;P2;SDS_P1;SDS_P2;PMS_P1;PMS_P2;Temp;Humidity;BMP_temperature;BMP_pressure;BME280_temperature;BME280_humidity;BME280_pressure;Samples;Min_cycle;Max_cycle;Signal;HPM_P1;HPM_P2
2021/09/09 00:00:34;;;;;;;6.33;5.00;;;19.00;76.30;;;;;;10451382;28;20220;-67
2021/09/09 00:05:56;;;;;;;5.13;4.70;;;19.10;76.40;;;;;;10446416;28;20212;-66
2021/09/09 00:11:18;;;;;;;5.07;4.57;;;19.00;76.30;;;;;;10451597;28;20200;-66
2021/09/09 00:16:41;;;;;;;5.33;4.83;;;19.10;76.40;;;;;;10509112;22;20605;-72
2021/09/09 00:22:04;;;;;;;5.27;4.73;;;19.00;76.30;;;;;;10479543;28;20696;-70
2021/09/09 00:27:26;;;;;;;5.70;5.07;;;19.00;76.30;;;;;;10456008;28;20740;-71
2021/09/09 00:32:49;;;;;;;5.63;5.00;;;19.00;76.20;;;;;;10497121;28;20212;-72
2021/09/09 00:38:12;;;;;;;5.57;5.07;;;19.00;76.30;;;;;;10493175;28;20589;-72
2021/09/09 00:43:34;;;;;;;5.70;5.13;;;19.00;76.30;;;;;;10487734;28;20224;-72
2021/09/09 00:48:57;;;;;;;5.80;5.20;;;19.00;76.30;;;;;;10500860;28;20196;-72
2021/09/09 00:54:20;;;;;;;6.33;5.73;;;19.10;76.30;;;;;;10489136;28;20224;-71
2021/09/09 00:59:42;;;;;;;6.70;5.87;;;19.00;76.20;;;;;;10497107;28;20242;-71
2021/09/09 01:05:07;;;;;;;5.93;5.33;;;19.00;76.20;;;;;;10497272;28;20212;-68
2021/09/09 01:10:29;;;;;;;6.37;5.63;;;19.00;76.20;;;;;;10497098;28;20679;-71
2021/09/09 01:15:51;;;;;;;7.70;5.10;;;19.00;76.20;;;;;;10496459;28;20231;-72
2021/09/09 01:21:15;;;;;;;5.73;5.23;;;19.00;76.20;;;;;;10497218;28;20685;-71
2021/09/09 01:26:53;;;;;;;5.73;5.20;;;19.00;76.20;;;;;;10497133;28;20586;-72
2021/09/09 01:32:16;;;;;;;6.07;5.50;;;19.00;76.10;;;;;;10455056;28;20197;-72
2021/09/09 01:37:38;;;;;;;6.67;5.93;;;19.00;76.10;;;;;;10456609;28;20320;-71
2021/09/09 01:43:01;;;;;;;6.37;5.73;;;19.00;76.10;;;;;;10495277;28;20592;-71
2021/09/09 01:48:24;;;;;;;7.10;6.40;;;19.00;76.10;;;;;;10495538;28;20197;-72
2021/09/09 01:53:46;;;;;;;7.00;5.50;;;19.00;76.00;;;;;;10494989;28;20600;-72
2021/09/09 01:59:09;;;;;;;6.70;6.00;;;19.00;76.00;;;;;;10495333;28;20698;-68
2021/09/09 02:04:31;;;;;;;7.27;6.33;;;19.00;76.00;;;;;;10495505;28;20696;-71
2021/09/09 02:09:53;;;;;;;6.17;5.63;;;19.00;75.90;;;;;;10493836;28;20199;-71
2021/09/09 02:15:17;;;;;;;6.80;6.10;;;19.00;75.90;;;;;;10493895;28;20603;-71
2021/09/09 02:20:39;;;;;;;6.90;6.20;;;19.00;75.90;;;;;;10494012;28;20197;-71
2021/09/09 02:26:01;;;;;;;7.00;6.30;;;19.00;75.80;;;;;;10494143;28;20693;-71
2021/09/09 02:31:25;;;;;;;6.50;5.80;;;19.00;75.80;;;;;;10493991;28;20215;-71
2021/09/09 02:36:47;;;;;;;6.57;5.87;;;19.00;75.80;;;;;;10493057;28;20220;-72
2021/09/09 02:42:10;;;;;;;6.53;5.83;;;19.00;75.70;;;;;;10493729;28;20669;-71
2021/09/09 02:47:34;;;;;;;8.17;6.30;;;19.00;75.70;;;;;;10494049;28;20696;-71
2021/09/09 02:52:56;;;;;;;6.93;6.23;;;19.00;75.70;;;;;;10491995;28;20652;-72
2021/09/09 02:58:18;;;;;;;6.77;6.10;;;19.00;75.60;;;;;;10493285;28;20185;-72
2021/09/09 03:03:41;;;;;;;6.40;5.80;;;19.00;75.60;;;;;;10491990;28;20212;-72
2021/09/09 03:09:03;;;;;;;7.00;6.30;;;19.00;75.60;;;;;;10492926;28;20196;-71
2021/09/09 03:14:25;;;;;;;6.97;6.27;;;19.00;75.60;;;;;;10492471;28;20739;-71
2021/09/09 03:19:49;;;;;;;6.47;5.77;;;19.00;75.50;;;;;;10492311;28;20197;-71
2021/09/09 03:25:11;;;;;;;7.10;6.40;;;19.00;75.50;;;;;;10492059;28;20213;-71
2021/09/09 03:30:33;;;;;;;6.87;6.17;;;19.00;75.50;;;;;;10491864;28;20224;-72
2021/09/09 03:35:57;;;;;;;7.93;7.13;;;19.00;75.50;;;;;;10493192;28;20713;-71
2021/09/09 03:41:19;;;;;;;7.67;6.50;;;19.00;75.50;;;;;;10490772;28;20204;-71
2021/09/09 03:46:41;;;;;;;7.03;6.30;;;19.00;75.50;;;;;;10491973;28;20246;-71
2021/09/09 03:52:05;;;;;;;7.60;6.60;;;19.00;75.50;;;;;;10491888;28;20207;-71
2021/09/09 03:57:27;;;;;;;7.30;6.43;;;19.00;75.40;;;;;;10450524;28;20224;-72
2021/09/09 04:02:49;;;;;;;7.07;6.37;;;19.00;75.40;;;;;;10451746;28;20201;-72
2021/09/09 04:08:13;;;;;;;7.47;6.67;;;19.00;75.40;;;;;;10458802;28;20220;-72
2021/09/09 04:13:35;;;;;;;7.73;6.93;;;19.00;75.40;;;;;;10498184;28;20221;-72
2021/09/09 04:18:57;;;;;;;8.00;7.20;;;18.90;75.40;;;;;;10499423;28;20192;-72
2021/09/09 04:24:21;;;;;;;8.27;6.37;;;19.00;75.40;;;;;;10499107;28;20692;-72
2021/09/09 04:29:43;;;;;;;7.80;7.00;;;19.00;75.50;;;;;;10497810;28;20257;-71
2021/09/09 04:35:06;;;;;;;7.33;6.63;;;19.00;75.50;;;;;;10497997;28;20215;-71
2021/09/09 04:40:30;;;;;;;8.10;7.30;;;19.00;75.50;;;;;;10497926;28;20199;-72
2021/09/09 04:45:52;;;;;;;7.87;7.07;;;19.00;75.50;;;;;;10495812;28;20208;-71
2021/09/09 04:51:14;;;;;;;7.97;7.17;;;19.00;75.40;;;;;;10498114;28;20611;-71
2021/09/09 04:56:38;;;;;;;7.90;7.10;;;19.00;75.40;;;;;;10496847;28;20220;-71
2021/09/09 05:02:00;;;;;;;7.93;7.13;;;19.00;75.40;;;;;;10496488;28;20199;-72
2021/09/09 05:07:22;;;;;;;7.93;7.13;;;19.00;75.30;;;;;;10497201;28;20693;-72
2021/09/09 05:12:46;;;;;;;7.63;6.83;;;19.00;75.30;;;;;;10496053;28;20577;-72
2021/09/09 05:18:08;;;;;;;9.13;7.40;;;19.00;75.20;;;;;;10496770;28;20220;-70
2021/09/09 05:23:30;;;;;;;10.03;8.43;;;18.90;75.20;;;;;;10454757;28;20204;-72
2021/09/09 05:28:53;;;;;;;9.83;8.57;;;18.90;74.40;;;;;;10455095;28;20189;-72
2021/09/09 05:34:16;;;;;;;9.93;8.93;;;18.80;73.80;;;;;;10454200;28;20222;-71
2021/09/09 05:39:38;;;;;;;10.10;9.00;;;18.80;73.50;;;;;;10472069;28;20196;-72
2021/09/09 05:45:01;;;;;;;10.90;9.30;;;18.80;73.40;;;;;;10496102;28;20223;-73
2021/09/09 05:50:23;;;;;;;11.83;9.03;;;18.70;73.30;;;;;;10493667;28;20209;-72
2021/09/09 05:55:46;;;;;;;9.70;8.60;;;18.70;73.30;;;;;;10457773;28;20227;-65
2021/09/09 06:01:09;;;;;;;9.37;8.33;;;18.70;73.40;;;;;;10481478;28;20193;-60
2021/09/09 06:06:31;;;;;;;10.77;9.03;;;18.70;73.40;;;;;;10484500;28;20585;-66
2021/09/09 06:11:53;;;;;;;10.23;9.07;;;18.70;73.50;;;;;;10488485;28;20544;-65
2021/09/09 06:17:17;;;;;;;10.00;9.00;;;18.70;73.60;;;;;;10509571;22;20604;-63
2021/09/09 06:22:39;;;;;;;10.23;9.23;;;18.70;73.60;;;;;;10494665;28;20196;-64
2021/09/09 06:28:01;;;;;;;11.50;9.33;;;18.70;73.70;;;;;;10459017;28;20213;-63
2021/09/09 06:33:24;;;;;;;12.00;9.60;;;18.70;73.70;;;;;;10463480;28;20680;-63
2021/09/09 06:38:46;;;;;;;12.53;9.40;;;18.70;73.80;;;;;;10491467;28;20588;-63
2021/09/09 06:44:08;;;;;;;10.87;9.77;;;18.70;73.80;;;;;;10493820;28;20215;-63
2021/09/09 06:49:32;;;;;;;10.93;9.13;;;18.70;73.80;;;;;;10496420;28;20587;-63
2021/09/09 06:54:54;;;;;;;10.77;9.10;;;18.70;73.90;;;;;;10494037;28;20211;-63
2021/09/09 07:00:16;;;;;;;9.87;8.67;;;18.70;74.00;;;;;;10491301;28;20494;-63
2021/09/09 07:05:40;;;;;;;11.33;9.10;;;18.70;74.10;;;;;;10495141;28;20231;-63
2021/09/09 07:11:02;;;;;;;10.20;8.50;;;18.70;74.10;;;;;;10495432;28;20204;-63
2021/09/09 07:16:24;;;;;;;12.77;9.57;;;18.70;74.20;;;;;;10519898;28;20226;-63
2021/09/09 07:21:50;;;;;;;9.57;8.53;;;18.70;74.20;;;;;;10535002;28;20207;-63
2021/09/09 07:27:12;;;;;;;10.67;8.67;;;18.70;74.40;;;;;;10499798;28;20223;-63
2021/09/09 07:32:35;;;;;;;11.23;8.63;;;18.70;74.50;;;;;;10525896;28;20243;-62
2021/09/09 07:37:59;;;;;;;9.10;8.10;;;18.80;74.60;;;;;;10530991;28;20359;-66
2021/09/09 07:43:21;;;;;;;10.83;8.40;;;18.80;74.80;;;;;;10501726;28;20192;-65
2021/09/09 07:48:43;;;;;;;9.43;8.53;;;18.90;75.10;;;;;;10500977;28;20204;-64
2021/09/09 07:54:06;;;;;;;9.67;8.67;;;18.80;75.30;;;;;;10499174;28;20212;-64
2021/09/09 07:59:29;;;;;;;9.67;8.27;;;18.90;75.30;;;;;;10523143;28;20203;-65
2021/09/09 08:04:51;;;;;;;9.83;8.83;;;18.90;75.70;;;;;;10491459;28;20235;-64
2021/09/09 08:10:17;;;;;;;9.43;8.47;;;18.90;75.80;;;;;;10498249;28;20203;-64
2021/09/09 08:15:39;;;;;;;10.67;8.83;;;19.00;75.80;;;;;;10497407;28;20220;-65
2021/09/09 08:21:01;;;;;;;9.93;8.47;;;19.00;75.90;;;;;;10498369;28;20196;-64
2021/09/09 08:26:25;;;;;;;9.10;8.20;;;19.00;75.90;;;;;;10496957;28;20221;-65
2021/09/09 08:31:47;;;;;;;9.43;8.43;;;19.00;76.00;;;;;;10506863;28;20821;-64
2021/09/09 08:37:09;;;;;;;8.80;7.90;;;19.00;76.10;;;;;;10498174;28;20727;-64
2021/09/09 08:42:33;;;;;;;9.33;8.33;;;19.00;76.20;;;;;;10457105;28;20200;-67
2021/09/09 08:47:58;;;;;;;8.10;7.30;;;19.00;76.50;;;;;;10456524;28;20221;-67
2021/09/09 08:53:21;;;;;;;8.57;7.70;;;19.00;76.60;;;;;;10480510;28;20200;-67
2021/09/09 08:58:44;;;;;;;8.77;7.87;;;19.10;76.70;;;;;;10493459;28;20216;-67
2021/09/09 09:04:11;;;;;;;8.63;7.83;;;19.10;76.60;;;;;;10462803;28;20213;-67
2021/09/09 09:09:36;;;;;;;8.97;8.10;;;19.10;76.50;;;;;;10455898;28;20197;-67
2021/09/09 09:15:17;;;;;;;9.97;7.67;;;19.10;76.40;;;;;;10466214;28;20239;-67
2021/09/09 09:20:46;;;;;;;8.47;7.53;;;19.20;76.20;;;;;;10508033;28;20201;-65
2021/09/09 09:26:08;;;;;;;10.30;7.70;;;19.10;76.20;;;;;;10496359;28;20709;-65
2021/09/09 09:31:33;;;;;;;8.47;7.57;;;19.20;76.60;;;;;;10538512;28;20226;-65
2021/09/09 09:36:55;;;;;;;8.43;7.63;;;19.10;76.90;;;;;;10519542;28;20226;-65
2021/09/09 09:42:17;;;;;;;8.37;7.40;;;19.10;77.20;;;;;;10495547;28;20572;-64
2021/09/09 09:47:40;;;;;;;8.13;7.33;;;19.10;77.20;;;;;;10519026;28;20613;-66
2021/09/09 09:53:15;;;;;;;11.70;7.67;;;19.10;77.30;;;;;;10496040;28;20231;-65
2021/09/09 09:58:37;;;;;;;9.17;7.27;;;19.20;77.20;;;;;;10489369;28;20313;-65
2021/09/09 10:04:03;;;;;;;8.67;7.40;;;19.20;76.80;;;;;;10493661;28;20554;-65
2021/09/09 10:09:26;;;;;;;8.80;7.33;;;19.20;76.40;;;;;;10494655;28;20210;-65
2021/09/09 10:14:51;;;;;;;7.70;6.83;;;19.20;76.30;;;;;;10493768;28;20232;-65
2021/09/09 10:20:32;;;;;;;8.13;6.77;;;19.20;76.30;;;;;;10493606;28;20192;-64
2021/09/09 10:25:58;;;;;;;9.23;6.93;;;19.20;75.80;;;;;;10453468;28;20677;-66
2021/09/09 10:31:23;;;;;;;7.57;6.87;;;19.20;75.70;;;;;;10494171;28;20572;-66
2021/09/09 10:36:47;;;;;;;8.07;7.27;;;19.20;75.50;;;;;;10492871;28;20224;-66
2021/09/09 10:42:36;;;;;;;11.30;7.20;;;19.30;75.50;;;;;;10493981;28;20203;-65
2021/09/09 10:47:59;;;;;;;8.33;6.77;;;19.30;75.50;;;;;;10474960;28;20697;-65
2021/09/09 10:53:34;;;;;;;6.83;5.93;;;19.30;75.50;;;;;;10478801;28;20207;-65
2021/09/09 10:59:10;;;;;;;7.50;6.40;;;19.30;74.10;;;;;;10493801;28;20295;-65
2021/09/09 11:04:34;;;;;;;8.37;6.17;;;19.30;73.80;;;;;;10493329;28;20212;-66
2021/09/09 11:10:02;;;;;;;6.40;5.73;;;19.30;73.40;;;;;;10492110;28;20656;-66
2021/09/09 11:15:32;;;;;;;6.87;6.00;;;19.30;73.20;;;;;;10492243;28;20230;-65
2021/09/09 11:21:05;;;;;;;6.60;5.83;;;19.30;73.00;;;;;;10492215;28;20573;-65
2021/09/09 11:26:29;;;;;;;7.90;6.40;;;19.30;73.00;;;;;;10463792;28;20217;-65
2021/09/09 11:31:52;;;;;;;6.63;5.93;;;19.30;73.10;;;;;;10467034;28;20207;-65
2021/09/09 11:37:14;;;;;;;6.60;5.97;;;19.30;73.10;;;;;;10451254;28;20699;-65
2021/09/09 11:42:38;;;;;;;6.70;5.67;;;19.30;72.90;;;;;;10480608;28;20200;-65
2021/09/09 11:48:03;;;;;;;8.67;6.20;;;19.30;72.20;;;;;;10484906;28;20216;-66
2021/09/09 11:53:27;;;;;;;5.77;4.73;;;19.30;71.40;;;;;;10485515;28;20636;-66
2021/09/09 11:58:51;;;;;;;6.90;5.50;;;19.30;71.00;;;;;;10487133;28;20224;-66
2021/09/09 12:04:14;;;;;;;6.97;5.60;;;19.40;70.70;;;;;;10486256;28;20220;-65
2021/09/09 12:09:38;;;;;;;6.57;5.77;;;19.40;70.20;;;;;;10485750;28;20200;-66
2021/09/09 12:15:04;;;;;;;18.47;13.63;;;19.40;70.20;;;;;;10445644;28;21080;-65
2021/09/09 12:20:27;;;;;;;32.30;17.83;;;19.40;71.10;;;;;;10485884;28;20203;-65
2021/09/09 12:25:49;;;;;;;20.20;14.30;;;19.40;71.90;;;;;;10486767;28;20223;-65
2021/09/09 12:31:12;;;;;;;16.07;11.50;;;19.40;72.10;;;;;;10507098;28;20207;-65
2021/09/09 12:36:43;;;;;;;13.30;10.20;;;19.40;72.10;;;;;;10493605;28;20218;-65
2021/09/09 12:42:06;;;;;;;13.47;9.50;;;19.40;72.20;;;;;;10492488;28;20219;-65
2021/09/09 12:47:29;;;;;;;16.23;8.43;;;19.30;72.30;;;;;;10491581;28;20311;-65
2021/09/09 12:52:55;;;;;;;10.07;8.40;;;19.40;72.30;;;;;;10488185;28;20207;-66
2021/09/09 12:58:17;;;;;;;9.57;7.87;;;19.40;72.20;;;;;;10493368;28;20231;-66
2021/09/09 13:03:41;;;;;;;8.97;7.53;;;19.40;72.70;;;;;;10492075;28;20207;-66
2021/09/09 13:09:04;;;;;;;8.63;6.93;;;19.40;72.20;;;;;;10491615;28;20234;-66
2021/09/09 13:14:26;;;;;;;7.50;6.53;;;19.40;72.40;;;;;;10528607;22;20599;-73
2021/09/09 13:19:49;;;;;;;8.53;6.70;;;19.40;72.60;;;;;;10538780;28;20224;-69
2021/09/09 13:25:11;;;;;;;7.37;6.13;;;19.40;72.80;;;;;;10511903;28;20231;-70
2021/09/09 13:30:34;;;;;;;8.80;6.43;;;19.40;72.90;;;;;;10561445;28;20689;-70
2021/09/09 13:35:57;;;;;;;7.60;6.10;;;19.40;73.10;;;;;;10545149;28;20215;-70
2021/09/09 13:41:19;;;;;;;9.90;6.60;;;19.40;73.20;;;;;;10536777;28;20238;-70
2021/09/09 13:46:41;;;;;;;9.17;6.07;;;19.50;73.40;;;;;;10534896;28;20222;-69
2021/09/09 13:52:05;;;;;;;9.37;6.10;;;19.40;73.60;;;;;;10533729;28;20204;-69
2021/09/09 13:57:27;;;;;;;6.33;5.73;;;19.40;73.80;;;;;;10532807;28;20219;-69
2021/09/09 14:02:49;;;;;;;8.47;6.77;;;19.40;74.00;;;;;;10535526;28;20180;-69
2021/09/09 14:08:13;;;;;;;10.00;6.03;;;19.40;74.20;;;;;;10538387;28;20204;-69
2021/09/09 14:13:35;;;;;;;6.90;6.20;;;19.40;74.30;;;;;;10536771;28;20498;-69
2021/09/09 14:18:57;;;;;;;7.43;6.63;;;19.40;74.40;;;;;;10536720;28;20215;-69
2021/09/09 14:24:21;;;;;;;8.57;6.30;;;19.40;74.50;;;;;;10536450;28;20219;-69
2021/09/09 14:29:43;;;;;;;9.53;6.87;;;19.40;74.60;;;;;;10560630;28;20614;-69
2021/09/09 14:35:06;;;;;;;8.50;6.80;;;19.40;74.80;;;;;;10578058;28;20218;-70
2021/09/09 14:40:30;;;;;;;7.20;6.50;;;19.40;74.90;;;;;;10552789;28;20188;-69
2021/09/09 14:45:52;;;;;;;7.67;6.80;;;19.40;75.00;;;;;;10535999;28;20222;-69
2021/09/09 14:51:15;;;;;;;8.77;7.37;;;19.40;75.10;;;;;;10534434;28;20660;-70
2021/09/09 14:56:38;;;;;;;7.10;6.33;;;19.40;75.20;;;;;;10535212;28;20220;-69
2021/09/09 15:02:00;;;;;;;7.10;6.40;;;19.40;75.50;;;;;;10534565;28;20200;-69
2021/09/09 15:07:22;;;;;;;7.50;6.67;;;19.40;75.60;;;;;;10533608;28;20215;-69
2021/09/09 15:12:45;;;;;;;7.77;6.43;;;19.40;75.60;;;;;;10534431;28;20196;-69
2021/09/09 15:18:08;;;;;;;9.83;6.97;;;19.40;75.70;;;;;;10534470;28;20220;-69
2021/09/09 15:23:30;;;;;;;8.37;6.67;;;19.40;75.90;;;;;;10533218;28;20223;-70
2021/09/09 15:28:53;;;;;;;8.73;6.93;;;19.40;75.90;;;;;;10551874;28;20190;-70
2021/09/09 15:34:15;;;;;;;8.57;6.53;;;19.40;75.90;;;;;;10575619;28;20698;-69
2021/09/09 15:39:38;;;;;;;8.23;6.40;;;19.40;76.00;;;;;;10557408;28;20219;-69
2021/09/09 15:45:01;;;;;;;6.93;6.27;;;19.50;76.10;;;;;;10533212;28;20718;-69
2021/09/09 15:50:23;;;;;;;8.20;6.40;;;19.40;76.00;;;;;;10534088;28;20219;-69
2021/09/09 15:55:45;;;;;;;6.40;5.80;;;19.40;76.00;;;;;;10533061;28;20220;-69
2021/09/09 16:01:09;;;;;;;7.03;6.30;;;19.50;76.10;;;;;;10535617;28;20195;-70
2021/09/09 16:06:31;;;;;;;6.10;5.47;;;19.50;76.10;;;;;;10541017;28;20218;-70
2021/09/09 16:11:54;;;;;;;6.93;6.10;;;19.50;76.20;;;;;;10540678;28;20694;-70
2021/09/09 16:17:22;;;;;;;8.93;6.03;;;19.40;76.30;;;;;;10540429;28;20223;-69
2021/09/09 16:22:44;;;;;;;7.00;6.30;;;19.40;76.40;;;;;;10538290;28;20191;-70
2021/09/09 16:28:06;;;;;;;7.50;6.50;;;19.50;76.60;;;;;;10551917;28;20609;-70
2021/09/09 16:33:30;;;;;;;10.27;6.03;;;19.50;76.60;;;;;;10555939;28;20219;-70
2021/09/09 16:38:54;;;;;;;8.20;6.30;;;19.40;76.60;;;;;;10540637;28;20212;-70
2021/09/09 16:44:16;;;;;;;7.43;5.80;;;19.50;76.80;;;;;;10535703;28;20239;-70
2021/09/09 16:49:39;;;;;;;6.67;5.43;;;19.50;77.00;;;;;;10537559;28;20192;-69
2021/09/09 16:55:01;;;;;;;8.33;5.53;;;19.40;77.10;;;;;;10539112;28;20587;-71
2021/09/09 17:00:23;;;;;;;6.37;5.73;;;19.40;77.10;;;;;;10539051;28;20289;-69
2021/09/09 17:05:47;;;;;;;9.73;5.70;;;19.40;77.10;;;;;;10538205;28;20723;-70
2021/09/09 17:11:09;;;;;;;10.90;6.67;;;19.50;77.50;;;;;;10537436;28;20200;-70
2021/09/09 17:16:32;;;;;;;9.87;6.57;;;19.50;78.90;;;;;;10537392;28;20216;-70
2021/09/09 17:21:56;;;;;;;8.93;6.30;;;19.50;80.00;;;;;;10537784;28;20210;-69
2021/09/09 17:27:18;;;;;;;7.40;6.37;;;19.50;80.40;;;;;;10543223;28;20684;-69
2021/09/09 17:32:40;;;;;;;6.63;5.93;;;19.50;80.20;;;;;;10580630;28;20195;-70
2021/09/09 17:38:04;;;;;;;7.97;5.73;;;19.50;80.00;;;;;;10543256;28;20223;-69
2021/09/09 17:43:26;;;;;;;9.90;6.30;;;19.50;80.30;;;;;;10517524;28;20219;-68
2021/09/09 17:48:48;;;;;;;6.80;6.10;;;19.50;80.60;;;;;;10491812;28;20573;-70
2021/09/09 17:54:12;;;;;;;7.40;6.70;;;19.50;80.70;;;;;;10530484;28;20631;-69
2021/09/09 17:59:34;;;;;;;11.57;6.97;;;19.50;80.70;;;;;;10534891;28;20223;-69
2021/09/09 18:04:56;;;;;;;9.10;7.03;;;19.50;80.70;;;;;;10536156;28;20219;-70
2021/09/09 18:10:20;;;;;;;8.63;6.77;;;19.50;80.90;;;;;;10534707;28;20196;-70
2021/09/09 18:15:42;;;;;;;9.07;7.43;;;19.50;81.10;;;;;;10536078;28;20246;-69
2021/09/09 18:21:04;;;;;;;8.47;7.23;;;19.50;80.90;;;;;;10530073;28;20227;-70
2021/09/09 18:26:28;;;;;;;8.23;7.20;;;19.50;80.60;;;;;;10533584;28;20216;-67
2021/09/09 18:31:50;;;;;;;7.73;6.97;;;19.50;80.30;;;;;;10519215;28;20192;-69
2021/09/09 18:37:13;;;;;;;8.43;7.40;;;19.50;80.00;;;;;;10534135;28;20220;-70
2021/09/09 18:42:36;;;;;;;9.20;6.90;;;19.50;79.80;;;;;;10532172;28;20192;-67
2021/09/09 18:47:58;;;;;;;7.77;6.97;;;19.50;79.60;;;;;;10534065;28;20610;-70
2021/09/09 18:53:20;;;;;;;7.60;6.80;;;19.50;79.40;;;;;;10534189;28;20199;-67
2021/09/09 18:58:44;;;;;;;9.20;7.07;;;19.50;79.30;;;;;;10533856;28;20214;-69
2021/09/09 19:04:06;;;;;;;10.20;7.43;;;19.50;79.20;;;;;;10533421;28;20213;-70
2021/09/09 19:09:28;;;;;;;7.87;7.10;;;19.50;79.20;;;;;;10534900;28;20199;-69
2021/09/09 19:14:51;;;;;;;9.13;7.60;;;19.50;79.20;;;;;;10533541;28;20223;-69
2021/09/09 19:20:14;;;;;;;8.67;7.53;;;19.50;79.40;;;;;;10529468;28;20581;-69
2021/09/09 19:25:36;;;;;;;8.17;7.37;;;19.50;79.50;;;;;;10531216;28;20238;-68
2021/09/09 19:30:59;;;;;;;8.17;7.37;;;19.60;79.60;;;;;;10569866;22;20234;-68
2021/09/09 19:36:22;;;;;;;7.90;7.10;;;19.50;79.60;;;;;;10538230;28;20671;-67
2021/09/09 19:41:44;;;;;;;7.70;6.73;;;19.50;79.50;;;;;;10543800;28;20222;-68
2021/09/09 19:47:07;;;;;;;7.77;6.90;;;19.50;79.40;;;;;;10544579;28;20207;-68
2021/09/09 19:52:29;;;;;;;7.00;6.30;;;19.50;79.40;;;;;;10544418;28;20203;-68
2021/09/09 19:57:51;;;;;;;8.40;6.90;;;19.50;79.30;;;;;;10545533;28;20230;-67
2021/09/09 20:03:15;;;;;;;7.53;6.80;;;19.50;79.30;;;;;;10545563;28;20695;-68
2021/09/09 20:08:37;;;;;;;7.90;7.10;;;19.50;79.40;;;;;;10544755;28;20208;-68
2021/09/09 20:13:59;;;;;;;7.60;6.80;;;19.60;79.40;;;;;;10543833;28;20192;-68
2021/09/09 20:19:23;;;;;;;7.97;6.83;;;19.50;79.50;;;;;;10543753;28;20294;-66
2021/09/09 20:24:45;;;;;;;7.50;6.80;;;19.50;79.60;;;;;;10544577;28;20192;-67
2021/09/09 20:30:11;;;;;;;7.60;6.90;;;19.50;79.60;;;;;;10544562;28;20587;-67
2021/09/09 20:35:34;;;;;;;8.40;7.50;;;19.50;79.60;;;;;;10545374;28;20598;-67
2021/09/09 20:40:57;;;;;;;8.50;7.43;;;19.50;79.60;;;;;;10544062;28;20609;-67
2021/09/09 20:46:19;;;;;;;8.60;7.63;;;19.60;79.60;;;;;;10544384;28;20200;-67
2021/09/09 20:51:43;;;;;;;7.77;6.73;;;19.50;79.60;;;;;;10540463;28;20223;-68
2021/09/09 20:57:05;;;;;;;7.37;6.67;;;19.50;79.50;;;;;;10539676;28;20223;-67
2021/09/09 21:02:29;;;;;;;7.83;7.07;;;19.50;79.50;;;;;;10538188;28;20614;-67
2021/09/09 21:07:53;;;;;;;8.20;7.40;;;19.50;79.40;;;;;;10538384;28;20223;-68
2021/09/09 21:13:15;;;;;;;7.57;6.87;;;19.60;79.50;;;;;;10538295;28;20203;-68
2021/09/09 21:18:37;;;;;;;8.60;7.73;;;19.50;79.50;;;;;;10538274;28;20220;-68
2021/09/09 21:24:01;;;;;;;7.53;6.73;;;19.50;79.60;;;;;;10538978;28;20195;-67
2021/09/09 21:29:23;;;;;;;8.93;8.07;;;19.50;79.70;;;;;;10537204;28;20260;-66
2021/09/09 21:34:45;;;;;;;8.97;8.07;;;19.50;79.80;;;;;;10538584;28;20196;-67
2021/09/09 21:40:11;;;;;;;9.53;8.00;;;19.50;79.80;;;;;;10537255;28;20222;-68
2021/09/09 21:45:33;;;;;;;8.90;7.63;;;19.50;79.80;;;;;;10537090;28;20703;-67
2021/09/09 21:50:55;;;;;;;8.47;7.67;;;19.60;79.70;;;;;;10526734;28;20224;-68
2021/09/09 21:56:19;;;;;;;8.77;7.87;;;19.50;79.60;;;;;;10537095;28;20187;-67
2021/09/09 22:01:41;;;;;;;10.33;7.73;;;19.50;79.70;;;;;;10536175;28;20233;-68
2021/09/09 22:07:03;;;;;;;8.17;7.37;;;19.50;79.70;;;;;;10536596;28;20199;-67
2021/09/09 22:12:27;;;;;;;8.50;7.70;;;19.50;79.70;;;;;;10537061;28;20195;-68
2021/09/09 22:17:49;;;;;;;9.50;7.57;;;19.50;79.70;;;;;;10537230;28;20220;-68
2021/09/09 22:23:11;;;;;;;8.30;7.50;;;19.50;79.60;;;;;;10535392;28;20691;-68
2021/09/09 22:28:35;;;;;;;8.63;7.83;;;19.50;79.60;;;;;;10535744;28;20219;-68
2021/09/09 22:33:57;;;;;;;8.77;7.87;;;19.50;79.60;;;;;;10536079;28;20198;-67
2021/09/09 22:39:19;;;;;;;8.73;7.40;;;19.50;79.60;;;;;;10535150;28;20226;-68
2021/09/09 22:44:42;;;;;;;8.00;7.17;;;19.50;79.50;;;;;;10534415;28;20211;-67
2021/09/09 22:50:05;;;;;;;8.87;7.60;;;19.50;79.50;;;;;;10534471;28;20230;-67
2021/09/09 22:55:28;;;;;;;8.23;7.37;;;19.50;79.50;;;;;;10535312;28;20188;-67
2021/09/09 23:00:51;;;;;;;8.10;7.33;;;19.50;79.50;;;;;;10534081;28;20216;-67
2021/09/09 23:06:13;;;;;;;9.83;7.53;;;19.50;79.40;;;;;;10535418;28;20568;-67
2021/09/09 23:11:35;;;;;;;8.80;7.53;;;19.50;79.40;;;;;;10533969;28;20588;-67
2021/09/09 23:16:59;;;;;;;8.00;7.20;;;19.60;79.60;;;;;;10534968;28;20207;-67
2021/09/09 23:22:21;;;;;;;7.83;7.07;;;19.50;79.50;;;;;;10534968;28;20184;-67
2021/09/09 23:27:43;;;;;;;8.23;7.43;;;19.50;80.10;;;;;;10534624;28;20219;-68
2021/09/09 23:33:06;;;;;;;9.03;7.70;;;19.60;79.60;;;;;;10533635;28;20203;-67
2021/09/09 23:38:28;;;;;;;8.53;7.63;;;19.50;79.60;;;;;;10534149;28;20223;-67
2021/09/09 23:43:50;;;;;;;8.57;7.77;;;19.50;79.60;;;;;;10532988;28;20192;-68
2021/09/09 23:49:14;;;;;;;8.50;7.70;;;19.60;79.60;;;;;;10533642;28;20212;-67
2021/09/09 23:54:37;;;;;;;8.07;7.27;;;19.50;79.60;;;;;;10534399;28;20225;-68
2021/09/09 23:59:59;;;;;;;8.03;7.33;;;19.50;79.50;;;;;;10533227;28;20219;-68
